sensor_id;sensor_type;location;lat;lon;timestamp;temperature;humidity
439;DHT22;206;48.782;9.252;2023-02-04T00:00:17;9.60;66.10
439;DHT22;206;48.782;9.252;2023-02-04T00:02:43;9.60;68.00
439;DHT22;206;48.782;9.252;2023-02-04T00:05:09;9.70;68.60
439;DHT22;206;48.782;9.252;2023-02-04T00:07:35;9.70;68.60
439;DHT22;206;48.782;9.252;2023-02-04T00:10:02;9.70;69.00
439;DHT22;206;48.782;9.252;2023-02-04T00:12:28;9.60;69.60
439;DHT22;206;48.782;9.252;2023-02-04T00:14:54;9.60;70.50
439;DHT22;206;48.782;9.252;2023-02-04T00:17:19;9.60;71.60
439;DHT22;206;48.782;9.252;2023-02-04T00:19:45;9.70;71.00
439;DHT22;206;48.782;9.252;2023-02-04T00:22:10;9.70;71.10
439;DHT22;206;48.782;9.252;2023-02-04T00:24:36;9.70;69.30
439;DHT22;206;48.782;9.252;2023-02-04T00:27:03;9.60;70.40
439;DHT22;206;48.782;9.252;2023-02-04T00:29:29;9.60;70.50
439;DHT22;206;48.782;9.252;2023-02-04T00:31:54;9.50;70.40
439;DHT22;206;48.782;9.252;2023-02-04T00:34:20;9.60;69.70
439;DHT22;206;48.782;9.252;2023-02-04T00:36:45;9.60;70.50
439;DHT22;206;48.782;9.252;2023-02-04T00:39:11;9.50;70.50
439;DHT22;206;48.782;9.252;2023-02-04T00:41:37;9.50;69.40
439;DHT22;206;48.782;9.252;2023-02-04T00:44:03;9.50;69.20
439;DHT22;206;48.782;9.252;2023-02-04T00:46:29;9.40;68.40
439;DHT22;206;48.782;9.252;2023-02-04T00:48:54;9.40;69.30
439;DHT22;206;48.782;9.252;2023-02-04T00:51:20;9.50;68.40
439;DHT22;206;48.782;9.252;2023-02-04T00:53:46;9.50;68.40
439;DHT22;206;48.782;9.252;2023-02-04T00:56:12;9.50;68.40
439;DHT22;206;48.782;9.252;2023-02-04T00:58:37;9.50;67.60
439;DHT22;206;48.782;9.252;2023-02-04T01:01:03;9.50;67.10
439;DHT22;206;48.782;9.252;2023-02-04T01:03:29;9.50;68.50
439;DHT22;206;48.782;9.252;2023-02-04T01:05:55;9.50;69.10
439;DHT22;206;48.782;9.252;2023-02-04T01:08:21;9.50;69.20
439;DHT22;206;48.782;9.252;2023-02-04T01:10:46;9.40;70.00
439;DHT22;206;48.782;9.252;2023-02-04T01:13:12;9.40;70.30
439;DHT22;206;48.782;9.252;2023-02-04T01:15:37;9.40;71.40
439;DHT22;206;48.782;9.252;2023-02-04T01:18:03;9.30;74.40
439;DHT22;206;48.782;9.252;2023-02-04T01:20:29;9.40;76.30
439;DHT22;206;48.782;9.252;2023-02-04T01:22:54;9.30;78.20
439;DHT22;206;48.782;9.252;2023-02-04T01:25:20;9.30;78.00
439;DHT22;206;48.782;9.252;2023-02-04T01:27:45;9.20;79.20
439;DHT22;206;48.782;9.252;2023-02-04T01:30:13;9.20;79.30
439;DHT22;206;48.782;9.252;2023-02-04T01:32:39;9.20;80.00
439;DHT22;206;48.782;9.252;2023-02-04T01:35:05;9.10;82.50
439;DHT22;206;48.782;9.252;2023-02-04T01:37:31;9.10;81.90
439;DHT22;206;48.782;9.252;2023-02-04T01:39:56;9.00;80.60
439;DHT22;206;48.782;9.252;2023-02-04T01:42:22;9.00;80.80
439;DHT22;206;48.782;9.252;2023-02-04T01:44:48;9.00;82.00
439;DHT22;206;48.782;9.252;2023-02-04T01:47:14;9.00;82.20
439;DHT22;206;48.782;9.252;2023-02-04T01:49:40;9.10;82.10
439;DHT22;206;48.782;9.252;2023-02-04T01:52:06;9.10;77.80
439;DHT22;206;48.782;9.252;2023-02-04T01:54:31;9.10;77.90
439;DHT22;206;48.782;9.252;2023-02-04T01:56:57;9.20;77.90
439;DHT22;206;48.782;9.252;2023-02-04T01:59:23;9.10;74.40
439;DHT22;206;48.782;9.252;2023-02-04T02:01:51;9.10;74.90
439;DHT22;206;48.782;9.252;2023-02-04T02:04:19;9.10;74.40
439;DHT22;206;48.782;9.252;2023-02-04T02:06:52;9.20;73.00
439;DHT22;206;48.782;9.252;2023-02-04T02:09:19;9.10;69.20
439;DHT22;206;48.782;9.252;2023-02-04T02:11:45;9.10;68.00
439;DHT22;206;48.782;9.252;2023-02-04T02:14:12;9.10;66.80
439;DHT22;206;48.782;9.252;2023-02-04T02:16:37;9.10;66.70
439;DHT22;206;48.782;9.252;2023-02-04T02:19:05;9.10;65.60
439;DHT22;206;48.782;9.252;2023-02-04T02:21:38;9.10;67.30
439;DHT22;206;48.782;9.252;2023-02-04T02:24:24;9.10;67.10
439;DHT22;206;48.782;9.252;2023-02-04T02:26:52;9.10;66.50
439;DHT22;206;48.782;9.252;2023-02-04T02:29:18;9.10;67.00
439;DHT22;206;48.782;9.252;2023-02-04T02:31:43;9.20;66.80
439;DHT22;206;48.782;9.252;2023-02-04T02:34:09;9.20;65.60
439;DHT22;206;48.782;9.252;2023-02-04T02:36:34;9.10;65.50
439;DHT22;206;48.782;9.252;2023-02-04T02:39:00;9.10;66.40
439;DHT22;206;48.782;9.252;2023-02-04T02:41:26;9.10;65.50
439;DHT22;206;48.782;9.252;2023-02-04T02:43:52;9.10;66.90
439;DHT22;206;48.782;9.252;2023-02-04T02:46:17;9.10;67.00
439;DHT22;206;48.782;9.252;2023-02-04T02:48:43;9.10;66.50
439;DHT22;206;48.782;9.252;2023-02-04T02:51:09;9.10;66.10
439;DHT22;206;48.782;9.252;2023-02-04T02:53:34;9.10;65.00
439;DHT22;206;48.782;9.252;2023-02-04T02:56:00;9.10;65.90
439;DHT22;206;48.782;9.252;2023-02-04T02:58:31;9.10;65.80
439;DHT22;206;48.782;9.252;2023-02-04T03:00:58;9.00;65.10
439;DHT22;206;48.782;9.252;2023-02-04T03:03:27;9.00;65.30
439;DHT22;206;48.782;9.252;2023-02-04T03:05:58;9.10;65.10
439;DHT22;206;48.782;9.252;2023-02-04T03:08:25;9.10;65.70
439;DHT22;206;48.782;9.252;2023-02-04T03:10:51;9.10;64.40
439;DHT22;206;48.782;9.252;2023-02-04T03:13:17;9.10;64.70
439;DHT22;206;48.782;9.252;2023-02-04T03:15:44;9.10;64.50
439;DHT22;206;48.782;9.252;2023-02-04T03:18:11;9.10;64.50
439;DHT22;206;48.782;9.252;2023-02-04T03:20:38;9.00;63.10
439;DHT22;206;48.782;9.252;2023-02-04T03:23:04;9.00;63.40
439;DHT22;206;48.782;9.252;2023-02-04T03:25:29;9.00;63.90
439;DHT22;206;48.782;9.252;2023-02-04T03:27:57;9.00;64.20
439;DHT22;206;48.782;9.252;2023-02-04T03:30:24;9.00;63.00
439;DHT22;206;48.782;9.252;2023-02-04T03:32:50;8.90;62.40
439;DHT22;206;48.782;9.252;2023-02-04T03:35:15;8.90;63.30
439;DHT22;206;48.782;9.252;2023-02-04T03:37:41;8.90;62.90
439;DHT22;206;48.782;9.252;2023-02-04T03:40:07;8.90;63.70
439;DHT22;206;48.782;9.252;2023-02-04T03:42:33;8.90;64.30
439;DHT22;206;48.782;9.252;2023-02-04T03:44:59;8.90;64.30
439;DHT22;206;48.782;9.252;2023-02-04T03:47:24;8.90;63.80
439;DHT22;206;48.782;9.252;2023-02-04T03:49:50;9.00;63.90
439;DHT22;206;48.782;9.252;2023-02-04T03:52:16;9.00;63.00
439;DHT22;206;48.782;9.252;2023-02-04T03:54:41;8.90;64.50
439;DHT22;206;48.782;9.252;2023-02-04T03:57:07;8.90;64.50
439;DHT22;206;48.782;9.252;2023-02-04T03:59:32;9.00;65.80
439;DHT22;206;48.782;9.252;2023-02-04T04:01:58;9.00;65.80
439;DHT22;206;48.782;9.252;2023-02-04T04:04:24;9.00;66.00
439;DHT22;206;48.782;9.252;2023-02-04T04:06:50;8.90;66.50
439;DHT22;206;48.782;9.252;2023-02-04T04:09:15;8.90;67.10
439;DHT22;206;48.782;9.252;2023-02-04T04:11:41;8.80;67.80
439;DHT22;206;48.782;9.252;2023-02-04T04:14:06;8.80;68.20
439;DHT22;206;48.782;9.252;2023-02-04T04:16:32;8.80;69.00
439;DHT22;206;48.782;9.252;2023-02-04T04:18:57;8.80;69.10
439;DHT22;206;48.782;9.252;2023-02-04T04:21:23;8.80;68.80
439;DHT22;206;48.782;9.252;2023-02-04T04:23:48;8.80;68.80
439;DHT22;206;48.782;9.252;2023-02-04T04:26:14;8.80;69.30
439;DHT22;206;48.782;9.252;2023-02-04T04:28:39;8.80;69.50
439;DHT22;206;48.782;9.252;2023-02-04T04:31:05;8.80;69.40
439;DHT22;206;48.782;9.252;2023-02-04T04:33:31;8.80;69.40
439;DHT22;206;48.782;9.252;2023-02-04T04:35:56;8.80;69.00
439;DHT22;206;48.782;9.252;2023-02-04T04:38:22;8.80;69.50
439;DHT22;206;48.782;9.252;2023-02-04T04:40:47;8.80;69.70
439;DHT22;206;48.782;9.252;2023-02-04T04:43:13;8.70;70.10
439;DHT22;206;48.782;9.252;2023-02-04T04:45:38;8.70;70.60
439;DHT22;206;48.782;9.252;2023-02-04T04:48:04;8.60;71.40
439;DHT22;206;48.782;9.252;2023-02-04T04:50:31;8.50;72.10
439;DHT22;206;48.782;9.252;2023-02-04T04:52:56;8.50;72.50
439;DHT22;206;48.782;9.252;2023-02-04T04:55:22;8.40;72.40
439;DHT22;206;48.782;9.252;2023-02-04T04:57:47;8.40;73.80
439;DHT22;206;48.782;9.252;2023-02-04T05:00:18;8.40;73.80
439;DHT22;206;48.782;9.252;2023-02-04T05:02:44;8.40;73.90
439;DHT22;206;48.782;9.252;2023-02-04T05:05:10;8.40;74.10
439;DHT22;206;48.782;9.252;2023-02-04T05:07:36;8.40;74.20
439;DHT22;206;48.782;9.252;2023-02-04T05:10:02;8.40;72.90
439;DHT22;206;48.782;9.252;2023-02-04T05:12:28;8.40;73.00
439;DHT22;206;48.782;9.252;2023-02-04T05:14:53;8.40;72.30
439;DHT22;206;48.782;9.252;2023-02-04T05:17:19;8.40;72.60
439;DHT22;206;48.782;9.252;2023-02-04T05:19:44;8.40;72.40
439;DHT22;206;48.782;9.252;2023-02-04T05:22:10;8.30;73.20
439;DHT22;206;48.782;9.252;2023-02-04T05:24:36;8.30;74.50
439;DHT22;206;48.782;9.252;2023-02-04T05:27:01;8.30;74.30
439;DHT22;206;48.782;9.252;2023-02-04T05:29:27;8.30;74.40
439;DHT22;206;48.782;9.252;2023-02-04T05:31:53;8.30;75.00
439;DHT22;206;48.782;9.252;2023-02-04T05:34:18;8.30;75.10
439;DHT22;206;48.782;9.252;2023-02-04T05:36:44;8.30;74.60
439;DHT22;206;48.782;9.252;2023-02-04T05:39:09;8.30;75.00
439;DHT22;206;48.782;9.252;2023-02-04T05:41:35;8.30;75.60
439;DHT22;206;48.782;9.252;2023-02-04T05:44:01;8.30;75.60
439;DHT22;206;48.782;9.252;2023-02-04T05:46:26;8.30;76.50
439;DHT22;206;48.782;9.252;2023-02-04T05:48:52;8.30;75.80
439;DHT22;206;48.782;9.252;2023-02-04T05:51:17;8.30;74.40
439;DHT22;206;48.782;9.252;2023-02-04T05:53:43;8.30;74.90
439;DHT22;206;48.782;9.252;2023-02-04T05:56:09;8.30;74.10
439;DHT22;206;48.782;9.252;2023-02-04T05:58:34;8.30;74.30
439;DHT22;206;48.782;9.252;2023-02-04T06:01:00;8.30;74.50
439;DHT22;206;48.782;9.252;2023-02-04T06:03:27;8.20;73.40
439;DHT22;206;48.782;9.252;2023-02-04T06:05:53;8.20;74.30
439;DHT22;206;48.782;9.252;2023-02-04T06:08:19;8.20;74.60
439;DHT22;206;48.782;9.252;2023-02-04T06:10:45;8.10;74.20
439;DHT22;206;48.782;9.252;2023-02-04T06:13:10;8.10;74.70
439;DHT22;206;48.782;9.252;2023-02-04T06:15:36;8.10;74.60
439;DHT22;206;48.782;9.252;2023-02-04T06:18:01;8.10;74.50
439;DHT22;206;48.782;9.252;2023-02-04T06:20:27;8.10;75.00
439;DHT22;206;48.782;9.252;2023-02-04T06:22:53;8.00;75.10
439;DHT22;206;48.782;9.252;2023-02-04T06:25:19;8.00;75.90
439;DHT22;206;48.782;9.252;2023-02-04T06:27:45;8.10;76.20
439;DHT22;206;48.782;9.252;2023-02-04T06:30:11;8.10;75.60
439;DHT22;206;48.782;9.252;2023-02-04T06:32:37;8.10;75.30
439;DHT22;206;48.782;9.252;2023-02-04T06:35:03;8.00;75.90
439;DHT22;206;48.782;9.252;2023-02-04T06:37:29;8.00;76.40
439;DHT22;206;48.782;9.252;2023-02-04T06:39:54;8.00;76.40
439;DHT22;206;48.782;9.252;2023-02-04T06:42:22;8.00;76.80
439;DHT22;206;48.782;9.252;2023-02-04T06:44:49;8.00;76.80
439;DHT22;206;48.782;9.252;2023-02-04T06:47:15;8.10;76.00
439;DHT22;206;48.782;9.252;2023-02-04T06:49:40;8.10;75.70
439;DHT22;206;48.782;9.252;2023-02-04T06:52:06;8.20;75.70
439;DHT22;206;48.782;9.252;2023-02-04T06:54:31;8.20;75.20
439;DHT22;206;48.782;9.252;2023-02-04T06:56:57;8.20;74.70
439;DHT22;206;48.782;9.252;2023-02-04T06:59:34;8.30;74.50
439;DHT22;206;48.782;9.252;2023-02-04T07:02:00;8.30;73.40
439;DHT22;206;48.782;9.252;2023-02-04T07:04:26;8.30;72.90
439;DHT22;206;48.782;9.252;2023-02-04T07:06:51;8.30;73.20
439;DHT22;206;48.782;9.252;2023-02-04T07:09:17;8.20;73.60
439;DHT22;206;48.782;9.252;2023-02-04T07:11:42;8.20;74.70
439;DHT22;206;48.782;9.252;2023-02-04T07:14:08;8.20;74.60
439;DHT22;206;48.782;9.252;2023-02-04T07:16:35;8.20;73.40
439;DHT22;206;48.782;9.252;2023-02-04T07:19:01;8.20;73.30
439;DHT22;206;48.782;9.252;2023-02-04T07:21:26;8.20;74.10
439;DHT22;206;48.782;9.252;2023-02-04T07:23:52;8.10;74.10
439;DHT22;206;48.782;9.252;2023-02-04T07:26:18;8.10;74.20
439;DHT22;206;48.782;9.252;2023-02-04T07:28:43;8.10;75.10
439;DHT22;206;48.782;9.252;2023-02-04T07:31:09;8.10;75.40
439;DHT22;206;48.782;9.252;2023-02-04T07:33:35;8.10;75.20
439;DHT22;206;48.782;9.252;2023-02-04T07:36:00;8.10;74.50
439;DHT22;206;48.782;9.252;2023-02-04T07:38:26;8.10;73.40
439;DHT22;206;48.782;9.252;2023-02-04T07:40:52;8.10;73.50
439;DHT22;206;48.782;9.252;2023-02-04T07:43:18;8.20;72.20
439;DHT22;206;48.782;9.252;2023-02-04T07:45:43;8.10;71.20
439;DHT22;206;48.782;9.252;2023-02-04T07:48:09;8.10;71.00
439;DHT22;206;48.782;9.252;2023-02-04T07:50:35;8.20;70.30
439;DHT22;206;48.782;9.252;2023-02-04T07:53:01;8.30;69.60
439;DHT22;206;48.782;9.252;2023-02-04T07:55:26;8.20;68.70
439;DHT22;206;48.782;9.252;2023-02-04T07:57:53;8.30;68.80
439;DHT22;206;48.782;9.252;2023-02-04T08:00:19;8.30;68.00
439;DHT22;206;48.782;9.252;2023-02-04T08:02:45;8.30;68.00
439;DHT22;206;48.782;9.252;2023-02-04T08:05:10;8.40;66.50
439;DHT22;206;48.782;9.252;2023-02-04T08:07:36;8.40;65.40
439;DHT22;206;48.782;9.252;2023-02-04T08:10:06;8.40;65.00
439;DHT22;206;48.782;9.252;2023-02-04T08:12:32;8.30;64.10
439;DHT22;206;48.782;9.252;2023-02-04T08:14:58;8.30;64.30
439;DHT22;206;48.782;9.252;2023-02-04T08:17:23;8.30;64.00
439;DHT22;206;48.782;9.252;2023-02-04T08:19:49;8.30;64.20
439;DHT22;206;48.782;9.252;2023-02-04T08:22:14;8.40;63.10
439;DHT22;206;48.782;9.252;2023-02-04T08:24:40;8.40;62.50
439;DHT22;206;48.782;9.252;2023-02-04T08:27:06;8.50;62.60
439;DHT22;206;48.782;9.252;2023-02-04T08:29:31;8.60;60.10
439;DHT22;206;48.782;9.252;2023-02-04T08:31:57;8.60;58.10
439;DHT22;206;48.782;9.252;2023-02-04T08:34:22;8.70;58.70
439;DHT22;206;48.782;9.252;2023-02-04T08:36:48;8.70;58.20
439;DHT22;206;48.782;9.252;2023-02-04T08:39:14;8.70;58.30
439;DHT22;206;48.782;9.252;2023-02-04T08:41:39;8.70;57.20
439;DHT22;206;48.782;9.252;2023-02-04T08:44:05;8.60;57.80
439;DHT22;206;48.782;9.252;2023-02-04T08:46:30;8.60;57.50
439;DHT22;206;48.782;9.252;2023-02-04T08:48:56;8.60;57.40
439;DHT22;206;48.782;9.252;2023-02-04T08:51:22;8.60;56.60
439;DHT22;206;48.782;9.252;2023-02-04T08:53:47;8.70;56.60
439;DHT22;206;48.782;9.252;2023-02-04T08:56:13;8.70;56.80
439;DHT22;206;48.782;9.252;2023-02-04T08:58:42;8.70;55.60
439;DHT22;206;48.782;9.252;2023-02-04T09:01:08;8.70;55.60
439;DHT22;206;48.782;9.252;2023-02-04T09:03:36;8.70;55.90
439;DHT22;206;48.782;9.252;2023-02-04T09:06:02;8.70;55.90
439;DHT22;206;48.782;9.252;2023-02-04T09:08:28;8.70;56.20
439;DHT22;206;48.782;9.252;2023-02-04T09:10:53;8.70;56.60
439;DHT22;206;48.782;9.252;2023-02-04T09:13:19;8.70;57.50
439;DHT22;206;48.782;9.252;2023-02-04T09:15:44;8.70;57.30
439;DHT22;206;48.782;9.252;2023-02-04T09:18:10;8.60;57.20
439;DHT22;206;48.782;9.252;2023-02-04T09:20:44;8.50;58.30
439;DHT22;206;48.782;9.252;2023-02-04T09:23:11;8.60;59.10
439;DHT22;206;48.782;9.252;2023-02-04T09:25:38;8.50;60.60
439;DHT22;206;48.782;9.252;2023-02-04T09:28:04;8.60;61.10
439;DHT22;206;48.782;9.252;2023-02-04T09:30:30;8.60;61.80
439;DHT22;206;48.782;9.252;2023-02-04T09:32:55;8.70;62.70
439;DHT22;206;48.782;9.252;2023-02-04T09:35:21;8.80;61.90
439;DHT22;206;48.782;9.252;2023-02-04T09:37:47;8.80;61.50
439;DHT22;206;48.782;9.252;2023-02-04T09:40:14;8.80;60.70
439;DHT22;206;48.782;9.252;2023-02-04T09:42:42;8.90;60.80
439;DHT22;206;48.782;9.252;2023-02-04T09:45:18;8.90;61.20
439;DHT22;206;48.782;9.252;2023-02-04T09:47:45;9.00;58.50
439;DHT22;206;48.782;9.252;2023-02-04T09:50:15;9.10;59.50
439;DHT22;206;48.782;9.252;2023-02-04T09:52:41;9.20;57.10
439;DHT22;206;48.782;9.252;2023-02-04T09:55:15;9.20;52.40
439;DHT22;206;48.782;9.252;2023-02-04T09:57:41;9.20;50.40
439;DHT22;206;48.782;9.252;2023-02-04T10:00:15;9.40;52.50
439;DHT22;206;48.782;9.252;2023-02-04T10:02:41;9.50;48.90
439;DHT22;206;48.782;9.252;2023-02-04T10:05:19;9.60;48.00
439;DHT22;206;48.782;9.252;2023-02-04T10:07:45;9.60;44.30
439;DHT22;206;48.782;9.252;2023-02-04T10:10:16;9.90;45.50
439;DHT22;206;48.782;9.252;2023-02-04T10:12:44;10.10;43.80
439;DHT22;206;48.782;9.252;2023-02-04T10:15:17;10.10;39.90
439;DHT22;206;48.782;9.252;2023-02-04T10:18:05;10.10;40.50
439;DHT22;206;48.782;9.252;2023-02-04T10:20:32;10.20;36.90
439;DHT22;206;48.782;9.252;2023-02-04T10:22:58;10.20;34.20
439;DHT22;206;48.782;9.252;2023-02-04T10:25:24;10.10;32.60
439;DHT22;206;48.782;9.252;2023-02-04T10:27:58;9.90;34.70
439;DHT22;206;48.782;9.252;2023-02-04T10:30:44;9.80;35.50
439;DHT22;206;48.782;9.252;2023-02-04T10:33:29;9.70;36.30
439;DHT22;206;48.782;9.252;2023-02-04T10:35:56;9.60;36.20
439;DHT22;206;48.782;9.252;2023-02-04T10:38:22;9.50;36.10
439;DHT22;206;48.782;9.252;2023-02-04T10:41:02;9.40;37.40
439;DHT22;206;48.782;9.252;2023-02-04T10:43:28;9.50;37.90
439;DHT22;206;48.782;9.252;2023-02-04T10:46:00;9.70;36.20
439;DHT22;206;48.782;9.252;2023-02-04T10:48:26;9.70;35.90
439;DHT22;206;48.782;9.252;2023-02-04T10:50:55;9.70;36.30
439;DHT22;206;48.782;9.252;2023-02-04T10:53:23;9.80;36.00
439;DHT22;206;48.782;9.252;2023-02-04T10:56:26;9.80;34.60
439;DHT22;206;48.782;9.252;2023-02-04T10:58:52;9.80;34.60
439;DHT22;206;48.782;9.252;2023-02-04T11:01:17;9.70;33.70
439;DHT22;206;48.782;9.252;2023-02-04T11:03:43;9.50;34.40
439;DHT22;206;48.782;9.252;2023-02-04T11:06:23;9.50;34.40
439;DHT22;206;48.782;9.252;2023-02-04T11:08:49;9.50;35.70
439;DHT22;206;48.782;9.252;2023-02-04T11:11:23;9.60;36.60
439;DHT22;206;48.782;9.252;2023-02-04T11:19:10;9.70;34.50
439;DHT22;206;48.782;9.252;2023-02-04T11:26:37;9.50;35.50
439;DHT22;206;48.782;9.252;2023-02-04T11:36:55;10.60;31.60
439;DHT22;206;48.782;9.252;2023-02-04T11:39:45;10.60;30.60
439;DHT22;206;48.782;9.252;2023-02-04T11:42:23;10.60;30.40
439;DHT22;206;48.782;9.252;2023-02-04T11:45:01;10.60;30.80
439;DHT22;206;48.782;9.252;2023-02-04T11:47:34;10.50;31.60
439;DHT22;206;48.782;9.252;2023-02-04T11:50:04;10.30;31.90
439;DHT22;206;48.782;9.252;2023-02-04T11:52:34;10.40;31.90
439;DHT22;206;48.782;9.252;2023-02-04T11:55:00;10.50;31.50
439;DHT22;206;48.782;9.252;2023-02-04T11:57:26;10.50;30.50
439;DHT22;206;48.782;9.252;2023-02-04T11:59:53;10.50;30.50
439;DHT22;206;48.782;9.252;2023-02-04T12:02:21;10.60;29.90
439;DHT22;206;48.782;9.252;2023-02-04T12:05:12;10.50;30.10
439;DHT22;206;48.782;9.252;2023-02-04T12:07:38;10.40;30.00
439;DHT22;206;48.782;9.252;2023-02-04T12:10:33;10.30;29.90
439;DHT22;206;48.782;9.252;2023-02-04T12:12:58;10.10;29.60
439;DHT22;206;48.782;9.252;2023-02-04T12:15:31;9.90;31.00
439;DHT22;206;48.782;9.252;2023-02-04T12:18:08;10.00;30.30
439;DHT22;206;48.782;9.252;2023-02-04T12:20:36;10.00;31.30
439;DHT22;206;48.782;9.252;2023-02-04T12:23:03;10.10;31.60
439;DHT22;206;48.782;9.252;2023-02-04T12:25:29;10.10;32.20
439;DHT22;206;48.782;9.252;2023-02-04T12:27:55;10.20;31.70
439;DHT22;206;48.782;9.252;2023-02-04T12:30:22;10.20;29.70
439;DHT22;206;48.782;9.252;2023-02-04T12:32:48;10.20;30.70
439;DHT22;206;48.782;9.252;2023-02-04T12:35:14;10.30;30.60
439;DHT22;206;48.782;9.252;2023-02-04T12:37:40;10.30;29.30
439;DHT22;206;48.782;9.252;2023-02-04T12:40:06;10.40;29.70
439;DHT22;206;48.782;9.252;2023-02-04T12:42:31;10.50;28.90
439;DHT22;206;48.782;9.252;2023-02-04T12:44:57;10.50;29.50
439;DHT22;206;48.782;9.252;2023-02-04T12:47:23;10.30;28.70
439;DHT22;206;48.782;9.252;2023-02-04T12:49:48;10.40;29.40
439;DHT22;206;48.782;9.252;2023-02-04T12:52:14;10.60;29.00
439;DHT22;206;48.782;9.252;2023-02-04T12:54:39;10.60;28.40
439;DHT22;206;48.782;9.252;2023-02-04T12:57:05;10.70;28.20
439;DHT22;206;48.782;9.252;2023-02-04T12:59:30;10.70;28.10
439;DHT22;206;48.782;9.252;2023-02-04T13:01:57;10.50;28.20
439;DHT22;206;48.782;9.252;2023-02-04T13:04:22;10.50;28.10
439;DHT22;206;48.782;9.252;2023-02-04T13:06:48;10.60;27.60
439;DHT22;206;48.782;9.252;2023-02-04T13:09:14;10.70;27.70
439;DHT22;206;48.782;9.252;2023-02-04T13:11:40;10.70;28.20
439;DHT22;206;48.782;9.252;2023-02-04T13:14:05;10.70;27.50
439;DHT22;206;48.782;9.252;2023-02-04T13:16:31;10.70;27.30
439;DHT22;206;48.782;9.252;2023-02-04T13:18:56;10.70;27.70
439;DHT22;206;48.782;9.252;2023-02-04T13:21:22;10.60;27.70
439;DHT22;206;48.782;9.252;2023-02-04T13:23:47;10.60;28.40
439;DHT22;206;48.782;9.252;2023-02-04T13:26:13;10.70;28.70
439;DHT22;206;48.782;9.252;2023-02-04T13:28:38;10.70;28.20
439;DHT22;206;48.782;9.252;2023-02-04T13:31:04;10.70;28.50
439;DHT22;206;48.782;9.252;2023-02-04T13:33:30;10.50;27.50
439;DHT22;206;48.782;9.252;2023-02-04T13:35:55;10.50;27.70
439;DHT22;206;48.782;9.252;2023-02-04T13:38:21;10.50;27.00
439;DHT22;206;48.782;9.252;2023-02-04T13:40:47;10.50;27.20
439;DHT22;206;48.782;9.252;2023-02-04T13:43:13;10.70;27.30
439;DHT22;206;48.782;9.252;2023-02-04T13:45:38;10.70;27.00
439;DHT22;206;48.782;9.252;2023-02-04T13:48:05;10.70;25.60
439;DHT22;206;48.782;9.252;2023-02-04T13:50:30;10.60;25.00
439;DHT22;206;48.782;9.252;2023-02-04T13:52:56;10.50;25.50
439;DHT22;206;48.782;9.252;2023-02-04T13:55:22;10.40;25.90
439;DHT22;206;48.782;9.252;2023-02-04T13:57:48;10.20;26.70
439;DHT22;206;48.782;9.252;2023-02-04T14:00:14;9.90;28.50
439;DHT22;206;48.782;9.252;2023-02-04T14:02:40;9.80;29.40
439;DHT22;206;48.782;9.252;2023-02-04T14:05:07;9.70;29.60
439;DHT22;206;48.782;9.252;2023-02-04T14:07:32;9.60;29.60
439;DHT22;206;48.782;9.252;2023-02-04T14:09:58;9.40;29.50
439;DHT22;206;48.782;9.252;2023-02-04T14:12:24;9.50;29.90
439;DHT22;206;48.782;9.252;2023-02-04T14:14:49;9.60;29.90
439;DHT22;206;48.782;9.252;2023-02-04T14:17:15;9.60;29.30
439;DHT22;206;48.782;9.252;2023-02-04T14:19:40;9.70;29.70
439;DHT22;206;48.782;9.252;2023-02-04T14:22:06;9.80;30.00
439;DHT22;206;48.782;9.252;2023-02-04T14:24:32;9.80;30.00
439;DHT22;206;48.782;9.252;2023-02-04T14:26:57;9.90;29.00
439;DHT22;206;48.782;9.252;2023-02-04T14:29:23;9.90;29.20
439;DHT22;206;48.782;9.252;2023-02-04T14:31:49;9.80;28.90
439;DHT22;206;48.782;9.252;2023-02-04T14:34:14;9.90;29.30
439;DHT22;206;48.782;9.252;2023-02-04T14:36:40;9.90;28.90
439;DHT22;206;48.782;9.252;2023-02-04T14:39:06;10.10;28.00
439;DHT22;206;48.782;9.252;2023-02-04T14:41:31;10.20;27.90
439;DHT22;206;48.782;9.252;2023-02-04T14:43:57;10.30;27.70
439;DHT22;206;48.782;9.252;2023-02-04T14:46:22;10.40;26.80
439;DHT22;206;48.782;9.252;2023-02-04T14:48:48;10.30;26.10
439;DHT22;206;48.782;9.252;2023-02-04T14:51:16;10.30;26.50
439;DHT22;206;48.782;9.252;2023-02-04T14:53:42;10.20;26.20
439;DHT22;206;48.782;9.252;2023-02-04T14:56:07;10.30;25.80
439;DHT22;206;48.782;9.252;2023-02-04T14:58:33;10.10;26.40
439;DHT22;206;48.782;9.252;2023-02-04T15:00:58;10.10;26.50
439;DHT22;206;48.782;9.252;2023-02-04T15:03:24;10.10;26.90
439;DHT22;206;48.782;9.252;2023-02-04T15:05:50;10.00;26.30
439;DHT22;206;48.782;9.252;2023-02-04T15:08:15;9.90;27.50
439;DHT22;206;48.782;9.252;2023-02-04T15:10:41;9.90;27.60
439;DHT22;206;48.782;9.252;2023-02-04T15:13:06;10.00;27.10
439;DHT22;206;48.782;9.252;2023-02-04T15:15:32;10.10;25.90
439;DHT22;206;48.782;9.252;2023-02-04T15:17:57;10.20;25.30
439;DHT22;206;48.782;9.252;2023-02-04T15:20:23;10.20;25.30
439;DHT22;206;48.782;9.252;2023-02-04T15:22:49;10.20;25.90
439;DHT22;206;48.782;9.252;2023-02-04T15:25:17;10.10;25.90
439;DHT22;206;48.782;9.252;2023-02-04T15:27:49;10.10;25.90
439;DHT22;206;48.782;9.252;2023-02-04T15:30:15;10.10;26.30
439;DHT22;206;48.782;9.252;2023-02-04T15:32:40;9.90;27.20
439;DHT22;206;48.782;9.252;2023-02-04T15:35:07;9.90;27.60
439;DHT22;206;48.782;9.252;2023-02-04T15:37:34;9.80;27.50
439;DHT22;206;48.782;9.252;2023-02-04T15:39:59;9.70;27.30
439;DHT22;206;48.782;9.252;2023-02-04T15:42:25;9.60;27.60
439;DHT22;206;48.782;9.252;2023-02-04T15:44:51;9.50;27.70
439;DHT22;206;48.782;9.252;2023-02-04T15:47:17;9.40;28.00
439;DHT22;206;48.782;9.252;2023-02-04T15:49:44;9.30;28.40
439;DHT22;206;48.782;9.252;2023-02-04T15:52:09;9.20;28.40
439;DHT22;206;48.782;9.252;2023-02-04T15:54:35;9.20;28.80
439;DHT22;206;48.782;9.252;2023-02-04T15:57:01;9.10;29.00
439;DHT22;206;48.782;9.252;2023-02-04T15:59:26;9.10;29.30
439;DHT22;206;48.782;9.252;2023-02-04T16:01:52;9.00;29.40
439;DHT22;206;48.782;9.252;2023-02-04T16:04:17;9.00;29.80
439;DHT22;206;48.782;9.252;2023-02-04T16:06:43;8.90;30.00
439;DHT22;206;48.782;9.252;2023-02-04T16:09:09;8.90;30.40
439;DHT22;206;48.782;9.252;2023-02-04T16:11:34;8.90;30.70
439;DHT22;206;48.782;9.252;2023-02-04T16:14:02;8.90;30.50
439;DHT22;206;48.782;9.252;2023-02-04T16:16:27;8.80;31.00
439;DHT22;206;48.782;9.252;2023-02-04T16:18:53;8.80;31.30
439;DHT22;206;48.782;9.252;2023-02-04T16:21:18;8.80;31.80
439;DHT22;206;48.782;9.252;2023-02-04T16:23:44;8.80;32.40
439;DHT22;206;48.782;9.252;2023-02-04T16:26:10;8.70;32.40
439;DHT22;206;48.782;9.252;2023-02-04T16:28:35;8.70;32.80
439;DHT22;206;48.782;9.252;2023-02-04T16:31:01;8.60;33.70
439;DHT22;206;48.782;9.252;2023-02-04T16:33:26;8.60;33.70
439;DHT22;206;48.782;9.252;2023-02-04T16:36:18;8.50;34.50
439;DHT22;206;48.782;9.252;2023-02-04T16:38:44;8.40;35.40
439;DHT22;206;48.782;9.252;2023-02-04T16:41:10;8.10;37.30
439;DHT22;206;48.782;9.252;2023-02-04T16:43:38;8.00;38.20
439;DHT22;206;48.782;9.252;2023-02-04T16:46:04;7.90;39.00
439;DHT22;206;48.782;9.252;2023-02-04T16:48:29;7.80;40.40
439;DHT22;206;48.782;9.252;2023-02-04T16:50:55;7.70;40.60
439;DHT22;206;48.782;9.252;2023-02-04T16:53:21;7.70;40.90
439;DHT22;206;48.782;9.252;2023-02-04T16:55:47;7.70;41.30
439;DHT22;206;48.782;9.252;2023-02-04T16:58:13;7.80;40.80
439;DHT22;206;48.782;9.252;2023-02-04T17:00:40;7.70;40.40
439;DHT22;206;48.782;9.252;2023-02-04T17:03:10;7.60;41.90